X  Sluiten METAR luchtvaart weer gegevens         EBOS Ostend-Bruges International Airport
Temperatuur
18°C Temperatuur
16°C Dauwpunt
88% Vochtigheid



Wind
7 KM/U
5 MPH
2 M/S
4 KTS



90°
O
Huidig weer

Mostly Clear Grotendeels helder
Luchtdruk 1010 (hPa) - 29.82 (inHg)
Zicht 5 (mijl) - 8 (km)
Vliegveld
Vliegveld code EBOS

Locatie : Ostend-Bruges International Airport
Afstand: 60 (km)

Metar:
METAR EBOS 162220Z 09004KT 8000 FEW045TCU 18/16 Q1010 TEMPO 4000 SHRA

Tijd: 17-08-2022 00:20 CEST